sensor_id;sensor_type;location;lat;lon;timestamp;temperature;humidity
10644;DHT22;5370;50.132;8.626;2022-07-29T00:00:41;21.40;40.50
10644;DHT22;5370;50.132;8.626;2022-07-29T00:03:10;21.40;40.40
10644;DHT22;5370;50.132;8.626;2022-07-29T00:05:41;21.40;40.40
10644;DHT22;5370;50.132;8.626;2022-07-29T00:08:08;21.40;40.40
10644;DHT22;5370;50.132;8.626;2022-07-29T00:10:34;21.40;40.30
10644;DHT22;5370;50.132;8.626;2022-07-29T00:13:00;21.40;40.20
10644;DHT22;5370;50.132;8.626;2022-07-29T00:15:26;21.50;40.30
10644;DHT22;5370;50.132;8.626;2022-07-29T00:17:52;21.50;40.30
10644;DHT22;5370;50.132;8.626;2022-07-29T00:20:17;21.50;40.30
10644;DHT22;5370;50.132;8.626;2022-07-29T00:22:43;21.50;40.30
10644;DHT22;5370;50.132;8.626;2022-07-29T00:25:09;21.60;40.40
10644;DHT22;5370;50.132;8.626;2022-07-29T00:27:35;21.60;40.50
10644;DHT22;5370;50.132;8.626;2022-07-29T00:30:02;21.60;40.50
10644;DHT22;5370;50.132;8.626;2022-07-29T00:32:28;21.70;40.60
10644;DHT22;5370;50.132;8.626;2022-07-29T00:34:53;21.70;40.60
10644;DHT22;5370;50.132;8.626;2022-07-29T00:37:37;21.70;40.50
10644;DHT22;5370;50.132;8.626;2022-07-29T00:40:03;21.70;40.40
10644;DHT22;5370;50.132;8.626;2022-07-29T00:42:29;21.70;40.40
10644;DHT22;5370;50.132;8.626;2022-07-29T00:44:55;21.70;40.20
10644;DHT22;5370;50.132;8.626;2022-07-29T00:47:20;21.80;40.10
10644;DHT22;5370;50.132;8.626;2022-07-29T00:49:46;21.80;40.00
10644;DHT22;5370;50.132;8.626;2022-07-29T00:52:12;21.80;39.70
10644;DHT22;5370;50.132;8.626;2022-07-29T00:54:39;21.80;39.40
10644;DHT22;5370;50.132;8.626;2022-07-29T00:57:06;21.80;39.10
10644;DHT22;5370;50.132;8.626;2022-07-29T00:59:33;21.90;39.10
10644;DHT22;5370;50.132;8.626;2022-07-29T01:01:59;21.90;39.00
10644;DHT22;5370;50.132;8.626;2022-07-29T01:04:24;21.90;38.90
10644;DHT22;5370;50.132;8.626;2022-07-29T01:06:50;21.90;38.90
10644;DHT22;5370;50.132;8.626;2022-07-29T01:09:18;21.90;38.90
10644;DHT22;5370;50.132;8.626;2022-07-29T01:11:44;21.90;38.90
10644;DHT22;5370;50.132;8.626;2022-07-29T01:14:11;21.90;39.00
10644;DHT22;5370;50.132;8.626;2022-07-29T01:16:59;21.90;39.00
10644;DHT22;5370;50.132;8.626;2022-07-29T01:30:12;21.80;39.10
10644;DHT22;5370;50.132;8.626;2022-07-29T01:32:39;21.80;39.10
10644;DHT22;5370;50.132;8.626;2022-07-29T01:37:45;21.70;39.10
10644;DHT22;5370;50.132;8.626;2022-07-29T01:40:38;21.70;39.10
10644;DHT22;5370;50.132;8.626;2022-07-29T01:43:14;21.70;39.10
10644;DHT22;5370;50.132;8.626;2022-07-29T01:45:45;21.70;39.40
10644;DHT22;5370;50.132;8.626;2022-07-29T01:50:51;21.70;39.30
10644;DHT22;5370;50.132;8.626;2022-07-29T01:53:38;21.70;39.30
10644;DHT22;5370;50.132;8.626;2022-07-29T01:56:08;21.70;39.50
10644;DHT22;5370;50.132;8.626;2022-07-29T01:58:39;21.60;39.50
10644;DHT22;5370;50.132;8.626;2022-07-29T02:01:06;21.60;39.60
10644;DHT22;5370;50.132;8.626;2022-07-29T02:03:35;21.60;39.80
10644;DHT22;5370;50.132;8.626;2022-07-29T02:06:02;21.60;39.90
10644;DHT22;5370;50.132;8.626;2022-07-29T02:08:30;21.50;40.10
10644;DHT22;5370;50.132;8.626;2022-07-29T02:10:59;21.50;40.30
10644;DHT22;5370;50.132;8.626;2022-07-29T02:13:28;21.50;40.50
10644;DHT22;5370;50.132;8.626;2022-07-29T02:15:55;21.40;40.80
10644;DHT22;5370;50.132;8.626;2022-07-29T02:18:23;21.30;40.90
10644;DHT22;5370;50.132;8.626;2022-07-29T02:20:53;21.20;41.10
10644;DHT22;5370;50.132;8.626;2022-07-29T02:23:24;21.20;41.60
10644;DHT22;5370;50.132;8.626;2022-07-29T02:25:53;21.10;41.90
10644;DHT22;5370;50.132;8.626;2022-07-29T02:28:22;21.00;42.40
10644;DHT22;5370;50.132;8.626;2022-07-29T02:30:50;21.00;42.70
10644;DHT22;5370;50.132;8.626;2022-07-29T02:33:18;20.90;43.10
10644;DHT22;5370;50.132;8.626;2022-07-29T02:35:46;20.90;43.50
10644;DHT22;5370;50.132;8.626;2022-07-29T02:38:15;20.80;43.90
10644;DHT22;5370;50.132;8.626;2022-07-29T02:41:10;20.80;44.10
10644;DHT22;5370;50.132;8.626;2022-07-29T02:43:37;20.70;44.30
10644;DHT22;5370;50.132;8.626;2022-07-29T02:46:06;20.70;44.50
10644;DHT22;5370;50.132;8.626;2022-07-29T02:48:40;20.70;44.60
10644;DHT22;5370;50.132;8.626;2022-07-29T02:51:17;20.60;44.90
10644;DHT22;5370;50.132;8.626;2022-07-29T02:53:49;20.60;45.20
10644;DHT22;5370;50.132;8.626;2022-07-29T02:56:17;20.60;45.30
10644;DHT22;5370;50.132;8.626;2022-07-29T02:58:52;20.60;45.60
10644;DHT22;5370;50.132;8.626;2022-07-29T03:01:23;20.50;45.80
10644;DHT22;5370;50.132;8.626;2022-07-29T03:03:51;20.50;46.10
10644;DHT22;5370;50.132;8.626;2022-07-29T03:06:20;20.50;46.40
10644;DHT22;5370;50.132;8.626;2022-07-29T03:08:46;20.50;46.30
10644;DHT22;5370;50.132;8.626;2022-07-29T03:11:13;20.50;46.80
10644;DHT22;5370;50.132;8.626;2022-07-29T03:13:40;20.40;47.30
10644;DHT22;5370;50.132;8.626;2022-07-29T03:16:06;20.40;47.60
10644;DHT22;5370;50.132;8.626;2022-07-29T03:18:34;20.40;48.50
10644;DHT22;5370;50.132;8.626;2022-07-29T03:21:00;20.30;48.50
10644;DHT22;5370;50.132;8.626;2022-07-29T03:23:26;20.20;48.90
10644;DHT22;5370;50.132;8.626;2022-07-29T03:25:53;20.20;49.10
10644;DHT22;5370;50.132;8.626;2022-07-29T03:28:19;20.10;49.30
10644;DHT22;5370;50.132;8.626;2022-07-29T03:30:45;20.10;49.70
10644;DHT22;5370;50.132;8.626;2022-07-29T03:33:11;20.00;50.30
10644;DHT22;5370;50.132;8.626;2022-07-29T03:35:37;19.90;50.80
10644;DHT22;5370;50.132;8.626;2022-07-29T03:38:03;19.80;51.10
10644;DHT22;5370;50.132;8.626;2022-07-29T03:40:38;19.80;51.40
10644;DHT22;5370;50.132;8.626;2022-07-29T03:43:07;19.70;51.70
10644;DHT22;5370;50.132;8.626;2022-07-29T03:45:34;19.60;51.90
10644;DHT22;5370;50.132;8.626;2022-07-29T03:48:05;19.60;52.00
10644;DHT22;5370;50.132;8.626;2022-07-29T03:50:33;19.60;52.40
10644;DHT22;5370;50.132;8.626;2022-07-29T03:52:59;19.50;52.50
10644;DHT22;5370;50.132;8.626;2022-07-29T03:55:25;19.40;53.00
10644;DHT22;5370;50.132;8.626;2022-07-29T03:57:51;19.40;53.50
10644;DHT22;5370;50.132;8.626;2022-07-29T04:00:18;19.30;53.60
10644;DHT22;5370;50.132;8.626;2022-07-29T04:02:44;19.30;53.80
10644;DHT22;5370;50.132;8.626;2022-07-29T04:05:14;19.20;54.00
10644;DHT22;5370;50.132;8.626;2022-07-29T04:07:44;19.20;54.10
10644;DHT22;5370;50.132;8.626;2022-07-29T04:10:10;19.10;54.10
10644;DHT22;5370;50.132;8.626;2022-07-29T04:12:35;19.10;54.00
10644;DHT22;5370;50.132;8.626;2022-07-29T04:15:03;19.00;54.20
10644;DHT22;5370;50.132;8.626;2022-07-29T04:17:28;19.00;54.20
10644;DHT22;5370;50.132;8.626;2022-07-29T04:19:54;18.90;54.30
10644;DHT22;5370;50.132;8.626;2022-07-29T04:22:19;18.90;54.30
10644;DHT22;5370;50.132;8.626;2022-07-29T04:24:45;18.80;54.20
10644;DHT22;5370;50.132;8.626;2022-07-29T04:27:10;18.80;54.30
10644;DHT22;5370;50.132;8.626;2022-07-29T04:29:36;18.80;54.10
10644;DHT22;5370;50.132;8.626;2022-07-29T04:32:02;18.70;54.00
10644;DHT22;5370;50.132;8.626;2022-07-29T04:34:27;18.70;54.00
10644;DHT22;5370;50.132;8.626;2022-07-29T04:36:53;18.80;54.00
10644;DHT22;5370;50.132;8.626;2022-07-29T04:39:18;18.70;53.90
10644;DHT22;5370;50.132;8.626;2022-07-29T04:41:44;18.70;53.80
10644;DHT22;5370;50.132;8.626;2022-07-29T04:44:09;18.70;53.80
10644;DHT22;5370;50.132;8.626;2022-07-29T04:46:35;18.70;53.70
10644;DHT22;5370;50.132;8.626;2022-07-29T04:49:02;18.60;53.60
10644;DHT22;5370;50.132;8.626;2022-07-29T04:51:28;18.60;53.70
10644;DHT22;5370;50.132;8.626;2022-07-29T04:53:53;18.70;53.70
10644;DHT22;5370;50.132;8.626;2022-07-29T04:56:19;18.70;53.60
10644;DHT22;5370;50.132;8.626;2022-07-29T04:58:44;18.70;53.60
10644;DHT22;5370;50.132;8.626;2022-07-29T05:01:10;18.70;53.50
10644;DHT22;5370;50.132;8.626;2022-07-29T05:03:35;18.80;53.40
10644;DHT22;5370;50.132;8.626;2022-07-29T05:06:01;18.80;53.20
10644;DHT22;5370;50.132;8.626;2022-07-29T05:08:26;18.90;53.10
10644;DHT22;5370;50.132;8.626;2022-07-29T05:10:52;19.00;53.00
10644;DHT22;5370;50.132;8.626;2022-07-29T05:13:18;19.00;52.90
10644;DHT22;5370;50.132;8.626;2022-07-29T05:15:43;19.10;52.80
10644;DHT22;5370;50.132;8.626;2022-07-29T05:18:09;19.10;52.70
10644;DHT22;5370;50.132;8.626;2022-07-29T05:20:34;19.10;52.60
10644;DHT22;5370;50.132;8.626;2022-07-29T05:23:01;19.20;52.60
10644;DHT22;5370;50.132;8.626;2022-07-29T05:25:27;19.20;52.40
10644;DHT22;5370;50.132;8.626;2022-07-29T05:27:54;19.30;52.40
10644;DHT22;5370;50.132;8.626;2022-07-29T05:30:20;19.40;52.30
10644;DHT22;5370;50.132;8.626;2022-07-29T05:32:46;19.50;52.10
10644;DHT22;5370;50.132;8.626;2022-07-29T05:35:12;19.60;52.00
10644;DHT22;5370;50.132;8.626;2022-07-29T05:37:38;19.70;51.90
10644;DHT22;5370;50.132;8.626;2022-07-29T05:40:04;19.80;51.80
10644;DHT22;5370;50.132;8.626;2022-07-29T05:42:30;19.90;51.70
10644;DHT22;5370;50.132;8.626;2022-07-29T05:44:55;20.10;51.70
10644;DHT22;5370;50.132;8.626;2022-07-29T05:47:22;20.20;51.40
10644;DHT22;5370;50.132;8.626;2022-07-29T05:49:47;20.50;51.10
10644;DHT22;5370;50.132;8.626;2022-07-29T05:52:13;21.00;50.90
10644;DHT22;5370;50.132;8.626;2022-07-29T05:54:39;21.60;50.30
10644;DHT22;5370;50.132;8.626;2022-07-29T05:57:05;22.30;48.90
10644;DHT22;5370;50.132;8.626;2022-07-29T05:59:31;22.90;48.10
10644;DHT22;5370;50.132;8.626;2022-07-29T06:02:00;23.30;46.90
10644;DHT22;5370;50.132;8.626;2022-07-29T06:04:25;23.60;45.90
10644;DHT22;5370;50.132;8.626;2022-07-29T06:06:51;23.70;45.00
10644;DHT22;5370;50.132;8.626;2022-07-29T06:09:16;23.80;45.00
10644;DHT22;5370;50.132;8.626;2022-07-29T06:11:42;23.80;44.80
10644;DHT22;5370;50.132;8.626;2022-07-29T06:14:08;23.70;44.90
10644;DHT22;5370;50.132;8.626;2022-07-29T06:16:33;23.80;44.80
10644;DHT22;5370;50.132;8.626;2022-07-29T06:18:59;24.10;44.60
10644;DHT22;5370;50.132;8.626;2022-07-29T06:21:24;25.00;44.30
10644;DHT22;5370;50.132;8.626;2022-07-29T06:23:50;26.10;43.10
10644;DHT22;5370;50.132;8.626;2022-07-29T06:26:16;27.40;40.80
10644;DHT22;5370;50.132;8.626;2022-07-29T06:28:41;28.70;39.60
10644;DHT22;5370;50.132;8.626;2022-07-29T06:31:07;29.90;36.30
10644;DHT22;5370;50.132;8.626;2022-07-29T06:33:32;30.50;34.30
10644;DHT22;5370;50.132;8.626;2022-07-29T06:35:58;30.90;32.80
10644;DHT22;5370;50.132;8.626;2022-07-29T06:38:25;31.30;32.10
10644;DHT22;5370;50.132;8.626;2022-07-29T06:40:50;31.80;31.70
10644;DHT22;5370;50.132;8.626;2022-07-29T06:43:38;32.30;30.80
10644;DHT22;5370;50.132;8.626;2022-07-29T06:46:08;33.00;29.90
10644;DHT22;5370;50.132;8.626;2022-07-29T06:48:35;33.40;29.30
10644;DHT22;5370;50.132;8.626;2022-07-29T06:51:02;33.90;28.50
10644;DHT22;5370;50.132;8.626;2022-07-29T06:53:28;34.30;28.20
10644;DHT22;5370;50.132;8.626;2022-07-29T06:55:54;34.90;27.60
10644;DHT22;5370;50.132;8.626;2022-07-29T06:58:19;35.50;26.90
10644;DHT22;5370;50.132;8.626;2022-07-29T07:00:47;35.60;26.20
10644;DHT22;5370;50.132;8.626;2022-07-29T07:03:13;36.00;26.00
10644;DHT22;5370;50.132;8.626;2022-07-29T07:05:39;36.30;25.50
10644;DHT22;5370;50.132;8.626;2022-07-29T07:08:05;36.60;24.90
10644;DHT22;5370;50.132;8.626;2022-07-29T07:10:31;36.90;24.70
10644;DHT22;5370;50.132;8.626;2022-07-29T07:12:57;37.30;24.20
10644;DHT22;5370;50.132;8.626;2022-07-29T07:15:23;37.50;23.80
10644;DHT22;5370;50.132;8.626;2022-07-29T07:17:49;37.40;23.50
10644;DHT22;5370;50.132;8.626;2022-07-29T07:20:15;37.20;23.30
10644;DHT22;5370;50.132;8.626;2022-07-29T07:22:41;37.10;23.30
10644;DHT22;5370;50.132;8.626;2022-07-29T07:25:07;36.80;23.60
10644;DHT22;5370;50.132;8.626;2022-07-29T07:27:32;36.50;24.00
10644;DHT22;5370;50.132;8.626;2022-07-29T07:29:58;36.50;24.10
10644;DHT22;5370;50.132;8.626;2022-07-29T07:32:23;36.80;24.00
10644;DHT22;5370;50.132;8.626;2022-07-29T07:34:49;37.00;23.50
10644;DHT22;5370;50.132;8.626;2022-07-29T07:37:14;37.60;23.30
10644;DHT22;5370;50.132;8.626;2022-07-29T07:39:41;38.10;22.70
10644;DHT22;5370;50.132;8.626;2022-07-29T07:42:06;38.50;22.20
10644;DHT22;5370;50.132;8.626;2022-07-29T07:44:32;38.70;22.10
10644;DHT22;5370;50.132;8.626;2022-07-29T07:46:58;38.70;22.00
10644;DHT22;5370;50.132;8.626;2022-07-29T07:49:23;38.70;22.00
10644;DHT22;5370;50.132;8.626;2022-07-29T07:51:49;39.10;21.80
10644;DHT22;5370;50.132;8.626;2022-07-29T07:54:14;39.30;21.40
10644;DHT22;5370;50.132;8.626;2022-07-29T07:56:40;39.10;21.50
10644;DHT22;5370;50.132;8.626;2022-07-29T07:59:06;39.10;21.50
10644;DHT22;5370;50.132;8.626;2022-07-29T08:01:31;39.10;21.50
10644;DHT22;5370;50.132;8.626;2022-07-29T08:03:57;39.40;21.10
10644;DHT22;5370;50.132;8.626;2022-07-29T08:06:22;39.60;21.00
10644;DHT22;5370;50.132;8.626;2022-07-29T08:08:50;40.10;20.90
10644;DHT22;5370;50.132;8.626;2022-07-29T08:11:16;40.60;20.70
10644;DHT22;5370;50.132;8.626;2022-07-29T08:13:42;41.00;20.20
10644;DHT22;5370;50.132;8.626;2022-07-29T08:16:08;41.00;20.10
10644;DHT22;5370;50.132;8.626;2022-07-29T08:18:38;41.20;19.90
10644;DHT22;5370;50.132;8.626;2022-07-29T08:21:04;42.00;19.70
10644;DHT22;5370;50.132;8.626;2022-07-29T08:23:30;43.00;19.20
10644;DHT22;5370;50.132;8.626;2022-07-29T08:26:04;44.10;18.60
10644;DHT22;5370;50.132;8.626;2022-07-29T08:28:30;44.60;17.80
10644;DHT22;5370;50.132;8.626;2022-07-29T08:30:56;44.20;17.60
10644;DHT22;5370;50.132;8.626;2022-07-29T08:33:21;44.00;17.70
10644;DHT22;5370;50.132;8.626;2022-07-29T08:35:47;43.60;17.90
10644;DHT22;5370;50.132;8.626;2022-07-29T08:38:12;43.20;18.00
10644;DHT22;5370;50.132;8.626;2022-07-29T08:40:39;42.40;18.50
10644;DHT22;5370;50.132;8.626;2022-07-29T08:43:07;41.60;18.80
10644;DHT22;5370;50.132;8.626;2022-07-29T08:45:42;41.10;19.30
10644;DHT22;5370;50.132;8.626;2022-07-29T08:48:09;40.40;19.60
10644;DHT22;5370;50.132;8.626;2022-07-29T08:50:35;39.80;20.10
10644;DHT22;5370;50.132;8.626;2022-07-29T08:53:02;39.10;20.50
10644;DHT22;5370;50.132;8.626;2022-07-29T08:55:29;38.20;21.20
10644;DHT22;5370;50.132;8.626;2022-07-29T08:57:55;37.20;21.90
10644;DHT22;5370;50.132;8.626;2022-07-29T09:00:21;35.90;22.90
10644;DHT22;5370;50.132;8.626;2022-07-29T09:02:50;35.10;23.80
10644;DHT22;5370;50.132;8.626;2022-07-29T09:05:20;34.40;24.50
10644;DHT22;5370;50.132;8.626;2022-07-29T09:07:46;33.20;25.80
10644;DHT22;5370;50.132;8.626;2022-07-29T09:10:13;32.30;26.50
10644;DHT22;5370;50.132;8.626;2022-07-29T09:12:38;31.50;27.40
10644;DHT22;5370;50.132;8.626;2022-07-29T09:15:05;30.90;28.10
10644;DHT22;5370;50.132;8.626;2022-07-29T09:20:15;30.10;29.30
10644;DHT22;5370;50.132;8.626;2022-07-29T09:22:41;29.80;29.80
10644;DHT22;5370;50.132;8.626;2022-07-29T09:25:07;29.30;30.00
10644;DHT22;5370;50.132;8.626;2022-07-29T09:27:33;29.10;30.30
10644;DHT22;5370;50.132;8.626;2022-07-29T09:30:02;29.00;30.90
10644;DHT22;5370;50.132;8.626;2022-07-29T09:32:29;29.00;31.20
10644;DHT22;5370;50.132;8.626;2022-07-29T09:35:18;28.90;31.50
10644;DHT22;5370;50.132;8.626;2022-07-29T09:37:44;28.90;31.80
10644;DHT22;5370;50.132;8.626;2022-07-29T09:40:15;28.90;31.90
10644;DHT22;5370;50.132;8.626;2022-07-29T09:42:41;28.90;32.50
10644;DHT22;5370;50.132;8.626;2022-07-29T09:45:07;28.80;33.20
10644;DHT22;5370;50.132;8.626;2022-07-29T09:47:45;28.70;32.80
10644;DHT22;5370;50.132;8.626;2022-07-29T09:50:11;28.70;33.40
10644;DHT22;5370;50.132;8.626;2022-07-29T09:52:48;28.80;33.50
10644;DHT22;5370;50.132;8.626;2022-07-29T09:55:15;28.80;33.80
10644;DHT22;5370;50.132;8.626;2022-07-29T09:57:40;28.70;33.30
10644;DHT22;5370;50.132;8.626;2022-07-29T10:00:09;28.70;33.20
10644;DHT22;5370;50.132;8.626;2022-07-29T10:02:36;28.80;33.20
10644;DHT22;5370;50.132;8.626;2022-07-29T10:05:05;28.80;33.00
10644;DHT22;5370;50.132;8.626;2022-07-29T10:07:56;28.90;33.20
10644;DHT22;5370;50.132;8.626;2022-07-29T10:10:31;28.90;33.60
10644;DHT22;5370;50.132;8.626;2022-07-29T10:13:05;28.90;33.70
10644;DHT22;5370;50.132;8.626;2022-07-29T10:15:34;28.80;33.80
10644;DHT22;5370;50.132;8.626;2022-07-29T10:18:02;28.80;33.70
10644;DHT22;5370;50.132;8.626;2022-07-29T10:20:28;28.70;33.50
10644;DHT22;5370;50.132;8.626;2022-07-29T10:22:54;28.80;33.70
10644;DHT22;5370;50.132;8.626;2022-07-29T10:25:22;28.80;33.70
10644;DHT22;5370;50.132;8.626;2022-07-29T10:27:48;28.80;33.80
10644;DHT22;5370;50.132;8.626;2022-07-29T10:30:15;28.90;33.80
10644;DHT22;5370;50.132;8.626;2022-07-29T10:33:06;28.80;33.90
10644;DHT22;5370;50.132;8.626;2022-07-29T10:38:48;29.10;33.80
10644;DHT22;5370;50.132;8.626;2022-07-29T10:46:28;29.10;33.50
10644;DHT22;5370;50.132;8.626;2022-07-29T10:49:13;29.20;33.90
10644;DHT22;5370;50.132;8.626;2022-07-29T10:52:01;29.20;33.80
10644;DHT22;5370;50.132;8.626;2022-07-29T10:54:37;29.30;33.60
10644;DHT22;5370;50.132;8.626;2022-07-29T10:57:18;29.30;33.60
10644;DHT22;5370;50.132;8.626;2022-07-29T11:04:58;29.70;33.50
10644;DHT22;5370;50.132;8.626;2022-07-29T11:07:25;29.80;33.30
10644;DHT22;5370;50.132;8.626;2022-07-29T11:15:08;29.70;32.90
10644;DHT22;5370;50.132;8.626;2022-07-29T11:20:46;29.80;33.00
10644;DHT22;5370;50.132;8.626;2022-07-29T11:23:27;29.80;33.10
10644;DHT22;5370;50.132;8.626;2022-07-29T11:31:43;29.70;33.00
10644;DHT22;5370;50.132;8.626;2022-07-29T11:39:33;29.70;32.90
10644;DHT22;5370;50.132;8.626;2022-07-29T11:44:57;29.80;32.90
10644;DHT22;5370;50.132;8.626;2022-07-29T11:47:25;29.80;33.00
10644;DHT22;5370;50.132;8.626;2022-07-29T11:49:51;29.80;33.20
10644;DHT22;5370;50.132;8.626;2022-07-29T11:52:18;29.80;33.10
10644;DHT22;5370;50.132;8.626;2022-07-29T11:54:44;29.80;33.10
10644;DHT22;5370;50.132;8.626;2022-07-29T11:57:12;30.00;33.00
10644;DHT22;5370;50.132;8.626;2022-07-29T11:59:40;30.20;33.00
10644;DHT22;5370;50.132;8.626;2022-07-29T12:02:07;30.40;32.80
10644;DHT22;5370;50.132;8.626;2022-07-29T12:04:52;30.50;32.30
10644;DHT22;5370;50.132;8.626;2022-07-29T12:07:29;30.60;32.40
10644;DHT22;5370;50.132;8.626;2022-07-29T12:09:54;30.70;32.10
10644;DHT22;5370;50.132;8.626;2022-07-29T12:12:21;30.80;32.10
10644;DHT22;5370;50.132;8.626;2022-07-29T12:14:47;30.80;32.00
10644;DHT22;5370;50.132;8.626;2022-07-29T12:17:45;30.80;32.00
10644;DHT22;5370;50.132;8.626;2022-07-29T12:20:10;30.70;32.00
10644;DHT22;5370;50.132;8.626;2022-07-29T12:22:39;30.70;32.00
10644;DHT22;5370;50.132;8.626;2022-07-29T12:25:08;30.80;32.20
10644;DHT22;5370;50.132;8.626;2022-07-29T12:27:35;30.80;32.00
10644;DHT22;5370;50.132;8.626;2022-07-29T12:30:07;30.90;31.80
10644;DHT22;5370;50.132;8.626;2022-07-29T12:32:45;30.90;31.90
10644;DHT22;5370;50.132;8.626;2022-07-29T12:35:13;30.90;31.90
10644;DHT22;5370;50.132;8.626;2022-07-29T12:37:41;30.90;32.00
10644;DHT22;5370;50.132;8.626;2022-07-29T12:40:08;31.00;32.00
10644;DHT22;5370;50.132;8.626;2022-07-29T12:42:34;31.20;31.90
10644;DHT22;5370;50.132;8.626;2022-07-29T12:45:00;31.20;31.70
10644;DHT22;5370;50.132;8.626;2022-07-29T12:47:27;31.40;31.60
10644;DHT22;5370;50.132;8.626;2022-07-29T12:50:28;31.50;31.20
10644;DHT22;5370;50.132;8.626;2022-07-29T12:52:54;31.30;30.90
10644;DHT22;5370;50.132;8.626;2022-07-29T12:55:43;31.20;31.10
10644;DHT22;5370;50.132;8.626;2022-07-29T12:58:10;31.20;31.50
10644;DHT22;5370;50.132;8.626;2022-07-29T13:00:36;31.20;31.40
10644;DHT22;5370;50.132;8.626;2022-07-29T13:03:01;31.20;31.40
10644;DHT22;5370;50.132;8.626;2022-07-29T13:05:47;31.20;31.40
10644;DHT22;5370;50.132;8.626;2022-07-29T13:08:14;31.30;31.30
10644;DHT22;5370;50.132;8.626;2022-07-29T13:10:40;31.30;31.10
10644;DHT22;5370;50.132;8.626;2022-07-29T13:15:33;31.50;31.30
10644;DHT22;5370;50.132;8.626;2022-07-29T13:18:00;31.50;31.00
10644;DHT22;5370;50.132;8.626;2022-07-29T13:20:27;31.50;30.90
10644;DHT22;5370;50.132;8.626;2022-07-29T13:22:56;31.50;31.00
10644;DHT22;5370;50.132;8.626;2022-07-29T13:25:26;31.50;31.00
10644;DHT22;5370;50.132;8.626;2022-07-29T13:27:52;31.50;30.80
10644;DHT22;5370;50.132;8.626;2022-07-29T13:30:20;31.50;30.70
10644;DHT22;5370;50.132;8.626;2022-07-29T13:32:46;31.50;30.60
10644;DHT22;5370;50.132;8.626;2022-07-29T13:35:12;31.50;30.70
10644;DHT22;5370;50.132;8.626;2022-07-29T13:37:38;31.60;30.80
10644;DHT22;5370;50.132;8.626;2022-07-29T13:40:06;31.70;30.60
10644;DHT22;5370;50.132;8.626;2022-07-29T13:42:32;31.80;30.30
10644;DHT22;5370;50.132;8.626;2022-07-29T13:44:58;31.80;30.00
10644;DHT22;5370;50.132;8.626;2022-07-29T13:47:24;31.70;30.00
10644;DHT22;5370;50.132;8.626;2022-07-29T13:49:50;31.70;30.20
10644;DHT22;5370;50.132;8.626;2022-07-29T13:52:16;31.60;30.10
10644;DHT22;5370;50.132;8.626;2022-07-29T13:54:42;31.40;30.20
10644;DHT22;5370;50.132;8.626;2022-07-29T13:57:09;31.20;30.40
10644;DHT22;5370;50.132;8.626;2022-07-29T13:59:39;31.10;30.70
10644;DHT22;5370;50.132;8.626;2022-07-29T14:02:04;31.00;30.80
10644;DHT22;5370;50.132;8.626;2022-07-29T14:04:31;30.90;30.80
10644;DHT22;5370;50.132;8.626;2022-07-29T14:06:56;30.90;30.90
10644;DHT22;5370;50.132;8.626;2022-07-29T14:09:22;30.90;30.90
10644;DHT22;5370;50.132;8.626;2022-07-29T14:11:47;30.80;30.90
10644;DHT22;5370;50.132;8.626;2022-07-29T14:14:15;30.80;31.60
10644;DHT22;5370;50.132;8.626;2022-07-29T14:16:40;30.80;31.10
10644;DHT22;5370;50.132;8.626;2022-07-29T14:19:06;30.80;31.30
10644;DHT22;5370;50.132;8.626;2022-07-29T14:21:32;30.70;31.40
10644;DHT22;5370;50.132;8.626;2022-07-29T14:23:57;30.60;31.70
10644;DHT22;5370;50.132;8.626;2022-07-29T14:26:23;30.50;31.80
10644;DHT22;5370;50.132;8.626;2022-07-29T14:28:49;30.40;32.50
10644;DHT22;5370;50.132;8.626;2022-07-29T14:31:15;30.30;34.50
10644;DHT22;5370;50.132;8.626;2022-07-29T14:33:41;30.00;36.00
10644;DHT22;5370;50.132;8.626;2022-07-29T14:36:07;29.80;37.00
10644;DHT22;5370;50.132;8.626;2022-07-29T14:38:33;29.60;37.60
10644;DHT22;5370;50.132;8.626;2022-07-29T14:40:58;29.40;38.30
10644;DHT22;5370;50.132;8.626;2022-07-29T14:43:24;29.30;38.70
10644;DHT22;5370;50.132;8.626;2022-07-29T14:45:49;29.10;39.10
10644;DHT22;5370;50.132;8.626;2022-07-29T14:48:15;28.90;38.70
10644;DHT22;5370;50.132;8.626;2022-07-29T14:50:40;28.80;38.70
10644;DHT22;5370;50.132;8.626;2022-07-29T14:53:06;28.70;38.00
10644;DHT22;5370;50.132;8.626;2022-07-29T14:55:32;28.70;38.10
10644;DHT22;5370;50.132;8.626;2022-07-29T14:57:57;28.70;38.70
10644;DHT22;5370;50.132;8.626;2022-07-29T15:00:25;28.70;39.30
10644;DHT22;5370;50.132;8.626;2022-07-29T15:02:50;28.70;39.60
10644;DHT22;5370;50.132;8.626;2022-07-29T15:05:16;28.80;39.50
10644;DHT22;5370;50.132;8.626;2022-07-29T15:07:42;28.90;39.60
10644;DHT22;5370;50.132;8.626;2022-07-29T15:10:08;28.90;39.10
10644;DHT22;5370;50.132;8.626;2022-07-29T15:12:34;28.90;38.80
10644;DHT22;5370;50.132;8.626;2022-07-29T15:14:59;28.90;38.70
10644;DHT22;5370;50.132;8.626;2022-07-29T15:17:25;28.90;37.80
10644;DHT22;5370;50.132;8.626;2022-07-29T15:19:51;28.90;37.50
10644;DHT22;5370;50.132;8.626;2022-07-29T15:22:16;28.80;36.80
10644;DHT22;5370;50.132;8.626;2022-07-29T15:24:42;28.90;36.40
10644;DHT22;5370;50.132;8.626;2022-07-29T15:27:08;28.90;36.20
10644;DHT22;5370;50.132;8.626;2022-07-29T15:29:40;29.00;35.90
10644;DHT22;5370;50.132;8.626;2022-07-29T15:32:05;29.10;36.20
10644;DHT22;5370;50.132;8.626;2022-07-29T15:34:31;29.00;35.90
10644;DHT22;5370;50.132;8.626;2022-07-29T15:36:57;28.90;35.80
10644;DHT22;5370;50.132;8.626;2022-07-29T15:39:22;28.90;35.70
10644;DHT22;5370;50.132;8.626;2022-07-29T15:41:48;28.80;35.20
10644;DHT22;5370;50.132;8.626;2022-07-29T15:44:14;28.70;35.50
10644;DHT22;5370;50.132;8.626;2022-07-29T15:46:40;28.60;35.30
10644;DHT22;5370;50.132;8.626;2022-07-29T15:49:24;28.60;35.80
10644;DHT22;5370;50.132;8.626;2022-07-29T15:51:59;28.60;35.90
10644;DHT22;5370;50.132;8.626;2022-07-29T15:54:25;28.50;35.70
10644;DHT22;5370;50.132;8.626;2022-07-29T15:56:51;28.60;35.70
10644;DHT22;5370;50.132;8.626;2022-07-29T15:59:16;28.60;35.30
10644;DHT22;5370;50.132;8.626;2022-07-29T16:01:42;28.70;35.30
10644;DHT22;5370;50.132;8.626;2022-07-29T16:04:08;28.70;35.20
10644;DHT22;5370;50.132;8.626;2022-07-29T16:06:33;28.70;35.00
10644;DHT22;5370;50.132;8.626;2022-07-29T16:08:59;28.70;34.80
10644;DHT22;5370;50.132;8.626;2022-07-29T16:11:25;28.70;34.80
10644;DHT22;5370;50.132;8.626;2022-07-29T16:13:50;28.70;34.80
10644;DHT22;5370;50.132;8.626;2022-07-29T16:16:16;28.70;34.80
10644;DHT22;5370;50.132;8.626;2022-07-29T16:18:46;28.60;34.50
10644;DHT22;5370;50.132;8.626;2022-07-29T16:21:11;28.50;34.20
10644;DHT22;5370;50.132;8.626;2022-07-29T16:23:38;28.40;34.40
10644;DHT22;5370;50.132;8.626;2022-07-29T16:26:03;28.40;34.50
10644;DHT22;5370;50.132;8.626;2022-07-29T16:28:29;28.40;34.60
10644;DHT22;5370;50.132;8.626;2022-07-29T16:30:58;28.40;34.80
10644;DHT22;5370;50.132;8.626;2022-07-29T16:33:24;28.40;34.90
10644;DHT22;5370;50.132;8.626;2022-07-29T16:35:50;28.40;35.00
10644;DHT22;5370;50.132;8.626;2022-07-29T16:38:15;28.40;35.90
10644;DHT22;5370;50.132;8.626;2022-07-29T16:40:41;28.40;37.50
10644;DHT22;5370;50.132;8.626;2022-07-29T16:43:07;28.30;39.00
10644;DHT22;5370;50.132;8.626;2022-07-29T16:45:33;28.30;40.00